Weather Data

Pearl Creek Farm: 8878 N Farm Road 75, Walnut Grove MO 65770

<== Previous Day (Saturday 09 Aug 2008) | Next Day (Monday 11 Aug 2008) ==>

Summary Precipitation Data For Sunday 10 August 2008

ElementValueUnits
PrecipitationT
Notes(none)
SourceSpringfield-Branson National Airport (SGF)

Summary Temperature Data For Sunday 10 August 2008

ElementValueUnits
High Temperature80 oF
Low Temperature67 oF
Average Temperature72 oF
High Humidity93 %
Low Humidity60 %
Average Humidity82 %
SourceSpringfield-Branson National Airport (SGF)

Detail Temperature Data For Sunday 10 August 2008

Date / TimeTemp (F)RH (%)Dew Pt (F)Report Date / TimeSource
2008-08-10 00:52:00 69 93 67.0 2017-12-29 19:14:24.89625 Springfield-Branson National Airport (SGF)
2008-08-10 05:52:00 68 93 66.0 2017-12-29 19:14:24.89625 Springfield-Branson National Airport (SGF)
2008-08-10 08:52:00 70 93 68.0 2017-12-29 19:14:24.89625 Springfield-Branson National Airport (SGF)
2008-08-10 01:52:00 68 93 66.0 2017-12-29 19:14:24.89625 Springfield-Branson National Airport (SGF)
2008-08-10 02:52:00 68 93 66.0 2017-12-29 19:14:24.89625 Springfield-Branson National Airport (SGF)
2008-08-10 03:52:00 69 90 66.0 2017-12-29 19:14:24.89625 Springfield-Branson National Airport (SGF)
2008-08-10 04:52:00 67 93 65.0 2017-12-29 19:14:24.89625 Springfield-Branson National Airport (SGF)
2008-08-10 06:52:00 70 87 66.0 2017-12-29 19:14:24.89625 Springfield-Branson National Airport (SGF)
2008-08-10 07:52:00 70 90 67.0 2017-12-29 19:14:24.89625 Springfield-Branson National Airport (SGF)
2008-08-10 09:52:00 72 87 68.0 2017-12-29 19:14:24.89625 Springfield-Branson National Airport (SGF)
2008-08-10 10:52:00 73 81 67.0 2017-12-29 19:14:24.89625 Springfield-Branson National Airport (SGF)
2008-08-10 11:52:00 75 76 67.0 2017-12-29 19:14:24.89625 Springfield-Branson National Airport (SGF)
2008-08-10 12:52:00 77 69 66.0 2017-12-29 19:14:24.89625 Springfield-Branson National Airport (SGF)
2008-08-10 13:52:00 76 69 65.0 2017-12-29 19:14:24.89625 Springfield-Branson National Airport (SGF)
2008-08-10 14:52:00 77 66 65.0 2017-12-29 19:14:24.89625 Springfield-Branson National Airport (SGF)
2008-08-10 15:52:00 80 60 65.0 2017-12-29 19:14:24.89625 Springfield-Branson National Airport (SGF)
2008-08-10 16:52:00 79 62 65.0 2017-12-29 19:14:24.89625 Springfield-Branson National Airport (SGF)
2008-08-10 17:52:00 78 62 64.0 2017-12-29 19:14:24.89625 Springfield-Branson National Airport (SGF)
2008-08-10 18:52:00 74 71 64.0 2017-12-29 19:14:24.89625 Springfield-Branson National Airport (SGF)
2008-08-10 19:52:00 71 84 66.0 2017-12-29 19:14:24.89625 Springfield-Branson National Airport (SGF)
2008-08-10 20:52:00 70 84 65.0 2017-12-29 19:14:24.89625 Springfield-Branson National Airport (SGF)
2008-08-10 21:52:00 68 90 65.0 2017-12-29 19:14:24.89625 Springfield-Branson National Airport (SGF)
2008-08-10 22:52:00 67 93 65.0 2017-12-29 19:14:24.89625 Springfield-Branson National Airport (SGF)
2008-08-10 23:52:00 67 93 65.0 2017-12-29 19:14:24.89625 Springfield-Branson National Airport (SGF)

A total of 24 rows are displayed.